Time;durP1;ratioP1;P1;durP2;ratioP2;P2;SDS_P1;SDS_P2;PMS_P1;PMS_P2;Temp;Humidity;BMP_temperature;BMP_pressure;BME280_temperature;BME280_humidity;BME280_pressure;Samples;Min_cycle;Max_cycle;Signal;HPM_P1;HPM_P2
2022/11/05 00:09:31;;;;;;;;;;;8.50;99.90;;;;;;5023470;28;19925;-70
2022/11/05 00:17:26;;;;;;;;;;;8.50;99.90;;;;;;5023304;28;19928;-70
2022/11/05 00:19:54;;;;;;;;;;;8.50;99.90;;;;;;5023392;28;19989;-72
2022/11/05 00:25:15;;;;;;;;;;;8.50;99.90;;;;;;5023218;28;19975;-70
2022/11/05 00:27:43;;;;;;;;;;;8.50;99.90;;;;;;5029073;28;19987;-70
2022/11/05 00:30:10;;;;;;;;;;;8.50;99.90;;;;;;5046819;28;19988;-70
2022/11/05 00:32:37;;;;;;;;;;;8.50;99.90;;;;;;5047019;28;19960;-70
2022/11/05 00:35:06;;;;;;;;;;;8.50;99.90;;;;;;5046790;28;19988;-70
2022/11/05 00:37:32;;;;;;;;;;;8.50;99.90;;;;;;5046711;28;19996;-71
2022/11/05 00:39:59;;;;;;;;;;;8.50;99.90;;;;;;5046906;28;19988;-70
2022/11/05 00:45:10;;;;;;;;;;;8.50;99.90;;;;;;5046340;28;19975;-71
2022/11/05 00:50:23;;;;;;;;;;;8.50;99.90;;;;;;5046431;28;19999;-71
2022/11/05 00:52:58;;;;;;;;;;;8.50;99.90;;;;;;5046510;28;20116;-71
2022/11/05 00:55:27;;;;;;;;;;;8.50;99.90;;;;;;5046375;28;20116;-71
2022/11/05 00:57:53;;;;;;;;;;;8.50;99.90;;;;;;5046521;28;19929;-70
2022/11/05 01:00:20;;;;;;;;;;;8.60;99.90;;;;;;5046595;28;19988;-70
2022/11/05 01:02:47;;;;;;;;;;;8.60;99.90;;;;;;5042047;28;20167;-71
2022/11/05 01:05:13;;;;;;;;;;;8.50;99.90;;;;;;5026210;28;19922;-70
2022/11/05 01:07:41;;;;;;;;;;;8.50;99.90;;;;;;5031704;28;19997;-70
2022/11/05 01:10:08;;;;;;;;;;;8.40;99.90;;;;;;5046190;28;19984;-70
2022/11/05 01:12:36;;;;;;;;;;;8.40;99.90;;;;;;5044853;28;19959;-70
2022/11/05 01:15:03;;;;;;;;;;;8.40;99.90;;;;;;5041729;28;19952;-70
2022/11/05 01:17:29;;;;;;;;;;;8.50;99.90;;;;;;5045941;28;19984;-70
2022/11/05 01:19:56;;;;;;;;;;;8.50;99.90;;;;;;5046019;28;20200;-70
2022/11/05 01:22:23;;;;;;;;;;;8.50;99.90;;;;;;5042322;28;19984;-70
2022/11/05 01:24:51;;;;;;;;;;;8.40;99.90;;;;;;5026002;28;19921;-70
2022/11/05 01:27:17;;;;;;;;;;;8.50;99.90;;;;;;5026372;28;19952;-70
2022/11/05 01:29:44;;;;;;;;;;;8.50;99.90;;;;;;5026085;28;20284;-71
2022/11/05 01:32:10;;;;;;;;;;;8.50;99.90;;;;;;5040137;28;19984;-70
2022/11/05 01:34:37;;;;;;;;;;;8.40;99.90;;;;;;5045767;28;19959;-71
2022/11/05 01:37:04;;;;;;;;;;;8.50;99.90;;;;;;5044898;28;19956;-71
2022/11/05 01:39:30;;;;;;;;;;;8.50;99.90;;;;;;5045242;28;19921;-71
2022/11/05 01:41:58;;;;;;;;;;;8.40;99.90;;;;;;5045756;28;20140;-70
2022/11/05 01:44:45;;;;;;;;;;;8.40;99.90;;;;;;5045817;28;20074;-71
2022/11/05 01:47:20;;;;;;;;;;;8.40;99.90;;;;;;5045748;28;19925;-71
2022/11/05 01:49:46;;;;;;;;;;;8.40;99.90;;;;;;5053300;28;19984;-70
2022/11/05 01:52:13;;;;;;;;;;;8.40;99.90;;;;;;5065544;28;19952;-70
2022/11/05 01:54:41;;;;;;;;;;;8.40;99.90;;;;;;5065305;28;20232;-71
2022/11/05 01:57:10;;;;;;;;;;;8.30;99.90;;;;;;5065368;28;19927;-70
2022/11/05 01:59:37;;;;;;;;;;;8.40;99.90;;;;;;5065394;28;19988;-71
2022/11/05 02:02:06;;;;;;;;;;;8.30;99.90;;;;;;5064936;28;19960;-70
2022/11/05 02:04:34;;;;;;;;;;;8.40;99.90;;;;;;5065057;28;19984;-70
2022/11/05 02:07:01;;;;;;;;;;;8.30;99.90;;;;;;5065009;28;19921;-72
2022/11/05 02:09:29;;;;;;;;;;;8.40;99.90;;;;;;5045449;28;20000;-71
2022/11/05 02:11:56;;;;;;;;;;;8.30;99.90;;;;;;5044744;28;19984;-70
2022/11/05 02:14:23;;;;;;;;;;;8.30;99.90;;;;;;5045268;28;19980;-71
2022/11/05 02:16:53;;;;;;;;;;;8.30;99.90;;;;;;5044872;28;19984;-71
2022/11/05 02:19:38;;;;;;;;;;;8.30;99.90;;;;;;5044599;28;19984;-70
2022/11/05 02:22:18;;;;;;;;;;;8.40;99.90;;;;;;5044999;28;19921;-70
2022/11/05 02:25:07;;;;;;;;;;;8.30;99.90;;;;;;5044670;28;20181;-71
2022/11/05 02:27:52;;;;;;;;;;;8.30;99.90;;;;;;5044801;28;20280;-70
2022/11/05 02:30:25;;;;;;;;;;;8.30;99.90;;;;;;5033749;28;19984;-70
2022/11/05 02:33:00;;;;;;;;;;;8.30;99.90;;;;;;5044905;28;19984;-71
2022/11/05 02:35:31;;;;;;;;;;;8.30;99.90;;;;;;5044269;28;20284;-70
2022/11/05 02:38:04;;;;;;;;;;;8.30;99.90;;;;;;5044758;28;20216;-71
2022/11/05 02:40:36;;;;;;;;;;;8.30;99.90;;;;;;5044818;28;19952;-71
2022/11/05 02:43:06;;;;;;;;;;;8.30;99.90;;;;;;5044413;28;20320;-70
2022/11/05 02:45:40;;;;;;;;;;;8.30;99.90;;;;;;5044260;28;19984;-70
2022/11/05 02:48:10;;;;;;;;;;;8.30;99.90;;;;;;5044659;28;19989;-70
2022/11/05 02:50:39;;;;;;;;;;;8.20;99.90;;;;;;5043484;28;20255;-71
2022/11/05 02:53:09;;;;;;;;;;;8.20;99.90;;;;;;5043717;28;19980;-70
2022/11/05 02:55:38;;;;;;;;;;;8.20;99.90;;;;;;5044330;28;19992;-72
2022/11/05 02:58:05;;;;;;;;;;;8.20;99.90;;;;;;5044119;28;20267;-71
2022/11/05 03:00:39;;;;;;;;;;;8.20;99.90;;;;;;5044416;28;20190;-69
2022/11/05 03:03:17;;;;;;;;;;;8.20;99.90;;;;;;5042994;28;19960;-70
2022/11/05 03:05:50;;;;;;;;;;;8.20;99.90;;;;;;5044001;28;20008;-70
2022/11/05 03:08:20;;;;;;;;;;;8.20;99.90;;;;;;5044260;28;19956;-71
2022/11/05 03:10:51;;;;;;;;;;;8.20;99.90;;;;;;5044376;28;19984;-71
2022/11/05 03:13:22;;;;;;;;;;;8.20;99.90;;;;;;5044034;28;19984;-69
2022/11/05 03:15:54;;;;;;;;;;;8.20;99.90;;;;;;5043875;28;20181;-70
2022/11/05 03:18:25;;;;;;;;;;;8.20;99.90;;;;;;5044081;28;19925;-70
2022/11/05 03:20:56;;;;;;;;;;;8.30;99.90;;;;;;5043784;28;20260;-71
2022/11/05 03:23:27;;;;;;;;;;;8.30;99.90;;;;;;5043508;28;19952;-71
2022/11/05 03:25:57;;;;;;;;;;;8.30;99.90;;;;;;5043751;28;19992;-71
2022/11/05 03:28:25;;;;;;;;;;;8.30;99.90;;;;;;5043964;28;19988;-71
2022/11/05 03:30:54;;;;;;;;;;;8.30;99.90;;;;;;5043555;28;19963;-71
2022/11/05 03:33:29;;;;;;;;;;;8.20;99.90;;;;;;5043369;28;19956;-70
2022/11/05 03:35:58;;;;;;;;;;;8.20;99.90;;;;;;5052599;28;19990;-70
2022/11/05 03:38:27;;;;;;;;;;;8.20;99.90;;;;;;5063448;28;20220;-71
2022/11/05 03:40:56;;;;;;;;;;;8.20;99.90;;;;;;5063755;28;19963;-70
2022/11/05 03:43:28;;;;;;;;;;;8.20;99.90;;;;;;5060113;28;20175;-71
2022/11/05 03:45:58;;;;;;;;;;;8.20;99.90;;;;;;5043588;28;19984;-70
2022/11/05 03:48:27;;;;;;;;;;;8.20;99.90;;;;;;5044022;28;19988;-70
2022/11/05 03:50:55;;;;;;;;;;;8.20;99.90;;;;;;5043949;28;19988;-70
2022/11/05 03:53:23;;;;;;;;;;;8.20;99.90;;;;;;5043506;28;20004;-70
2022/11/05 03:55:52;;;;;;;;;;;8.20;99.90;;;;;;5043230;28;20169;-70
2022/11/05 03:58:19;;;;;;;;;;;8.20;99.90;;;;;;5032636;28;19996;-70
2022/11/05 04:00:47;;;;;;;;;;;8.20;99.90;;;;;;5024681;28;19949;-70
2022/11/05 04:03:15;;;;;;;;;;;8.20;99.90;;;;;;5047641;28;19983;-70
2022/11/05 04:05:41;;;;;;;;;;;8.20;99.90;;;;;;5047318;28;19992;-70
2022/11/05 04:13:37;;;;;;;;;;;8.20;99.90;;;;;;5027476;28;19964;-70
2022/11/05 04:18:51;;;;;;;;;;;8.30;99.90;;;;;;5047095;28;19927;-70
2022/11/05 04:24:08;;;;;;;;;;;8.30;99.90;;;;;;5047262;28;19924;-71
2022/11/05 04:26:35;;;;;;;;;;;8.30;99.90;;;;;;5047026;28;19984;-72
2022/11/05 04:31:45;;;;;;;;;;;8.40;99.90;;;;;;5046945;28;19925;-71
2022/11/05 04:34:15;;;;;;;;;;;8.30;99.90;;;;;;5046838;28;20232;-71
2022/11/05 04:36:41;;;;;;;;;;;8.30;99.90;;;;;;5046977;28;19921;-70
2022/11/05 04:39:08;;;;;;;;;;;8.30;99.90;;;;;;5047018;28;20260;-71
2022/11/05 04:41:35;;;;;;;;;;;8.30;99.90;;;;;;5046729;28;20268;-71
2022/11/05 04:44:01;;;;;;;;;;;8.30;99.90;;;;;;5046755;28;19952;-72
2022/11/05 04:46:28;;;;;;;;;;;8.30;99.90;;;;;;5046589;28;19988;-71
2022/11/05 04:48:55;;;;;;;;;;;8.30;99.90;;;;;;5046925;28;19967;-72
2022/11/05 04:51:23;;;;;;;;;;;8.20;99.90;;;;;;5046697;28;19991;-71
2022/11/05 04:53:49;;;;;;;;;;;8.10;99.90;;;;;;5046892;28;20165;-70
2022/11/05 04:56:18;;;;;;;;;;;8.20;99.90;;;;;;5046506;28;19987;-70
2022/11/05 04:58:45;;;;;;;;;;;8.20;99.90;;;;;;5046631;28;19984;-71
2022/11/05 05:01:12;;;;;;;;;;;8.20;99.90;;;;;;5046246;28;19984;-71
2022/11/05 05:03:39;;;;;;;;;;;8.20;99.90;;;;;;5046616;28;19988;-71
2022/11/05 05:06:05;;;;;;;;;;;8.20;99.90;;;;;;5046360;28;19949;-71
2022/11/05 05:08:34;;;;;;;;;;;8.10;99.90;;;;;;5046405;28;19928;-70
2022/11/05 05:11:01;;;;;;;;;;;8.10;99.90;;;;;;5046382;28;19953;-70
2022/11/05 05:13:28;;;;;;;;;;;8.20;99.90;;;;;;5045293;28;19959;-71
2022/11/05 05:15:54;;;;;;;;;;;8.20;99.90;;;;;;5046075;28;19992;-71
2022/11/05 05:18:21;;;;;;;;;;;8.20;99.90;;;;;;5046314;28;20273;-70
2022/11/05 05:23:33;;;;;;;;;;;8.20;99.90;;;;;;5045887;28;19924;-70
2022/11/05 05:26:00;;;;;;;;;;;8.10;99.90;;;;;;5045501;28;19967;-70
2022/11/05 05:28:27;;;;;;;;;;;8.10;99.90;;;;;;5045592;28;19984;-70
2022/11/05 05:30:53;;;;;;;;;;;8.10;99.90;;;;;;5045840;28;19984;-71
2022/11/05 05:33:20;;;;;;;;;;;8.10;99.90;;;;;;5046214;28;20016;-70
2022/11/05 05:35:46;;;;;;;;;;;8.10;99.90;;;;;;5045778;28;20149;-71
2022/11/05 05:38:13;;;;;;;;;;;8.10;99.90;;;;;;5045909;28;19988;-70
2022/11/05 05:40:41;;;;;;;;;;;8.10;99.90;;;;;;5045757;28;19989;-70
2022/11/05 05:43:08;;;;;;;;;;;8.10;99.90;;;;;;5045550;28;19992;-71
2022/11/05 05:45:34;;;;;;;;;;;8.10;99.90;;;;;;5045377;28;20167;-73
2022/11/05 05:48:02;;;;;;;;;;;8.10;99.90;;;;;;5045495;28;19984;-70
2022/11/05 05:50:29;;;;;;;;;;;8.10;99.90;;;;;;5045379;28;19921;-70
2022/11/05 05:52:55;;;;;;;;;;;8.10;99.90;;;;;;5045178;28;19989;-70
2022/11/05 05:55:22;;;;;;;;;;;8.10;99.90;;;;;;5044796;28;20256;-71
2022/11/05 05:57:50;;;;;;;;;;;8.10;99.90;;;;;;5045381;28;19989;-71
2022/11/05 06:00:17;;;;;;;;;;;8.10;99.90;;;;;;5045279;28;19992;-70
2022/11/05 06:02:43;;;;;;;;;;;8.10;99.90;;;;;;5044763;28;19956;-70
2022/11/05 06:05:10;;;;;;;;;;;8.10;99.90;;;;;;5044562;28;19992;-70
2022/11/05 06:07:37;;;;;;;;;;;8.10;99.90;;;;;;5044955;28;19988;-70
2022/11/05 06:10:04;;;;;;;;;;;8.20;99.90;;;;;;5044995;28;19968;-70
2022/11/05 06:12:30;;;;;;;;;;;8.10;99.90;;;;;;5045096;28;19983;-70
2022/11/05 06:14:58;;;;;;;;;;;8.10;99.90;;;;;;5044531;28;19980;-70
2022/11/05 06:17:25;;;;;;;;;;;8.10;99.90;;;;;;5045000;28;19984;-71
2022/11/05 06:19:51;;;;;;;;;;;8.10;99.90;;;;;;5044804;28;19964;-70
2022/11/05 06:22:18;;;;;;;;;;;8.10;99.90;;;;;;5044384;28;20199;-70
2022/11/05 06:24:45;;;;;;;;;;;8.10;99.90;;;;;;5044527;28;19992;-70
2022/11/05 06:27:11;;;;;;;;;;;8.10;99.90;;;;;;5044647;28;20008;-70
2022/11/05 06:29:38;;;;;;;;;;;8.10;99.90;;;;;;5044427;28;19956;-70
2022/11/05 06:32:06;;;;;;;;;;;8.10;99.90;;;;;;5044588;28;19956;-70
2022/11/05 06:34:32;;;;;;;;;;;8.10;99.90;;;;;;5044391;28;19980;-70
2022/11/05 06:36:59;;;;;;;;;;;8.10;99.90;;;;;;5044349;28;19957;-71
2022/11/05 06:39:26;;;;;;;;;;;8.10;99.90;;;;;;5044166;28;20239;-71
2022/11/05 06:41:52;;;;;;;;;;;8.10;99.90;;;;;;5044480;28;19984;-70
2022/11/05 06:44:21;;;;;;;;;;;8.10;99.90;;;;;;5043096;28;20189;-71
2022/11/05 06:46:47;;;;;;;;;;;8.10;99.90;;;;;;5044071;28;19921;-70
2022/11/05 06:49:15;;;;;;;;;;;8.10;99.90;;;;;;5044342;28;19960;-70
2022/11/05 06:51:42;;;;;;;;;;;8.10;99.90;;;;;;5044286;28;20001;-70
2022/11/05 06:54:09;;;;;;;;;;;8.20;99.90;;;;;;5043838;28;19963;-71
2022/11/05 06:56:35;;;;;;;;;;;8.10;99.90;;;;;;5043632;28;19948;-71
2022/11/05 06:59:02;;;;;;;;;;;8.10;99.90;;;;;;5043842;28;19995;-72
2022/11/05 07:01:29;;;;;;;;;;;8.10;99.90;;;;;;5043825;28;19927;-70
2022/11/05 07:03:55;;;;;;;;;;;8.20;99.90;;;;;;5044138;28;19990;-70
2022/11/05 07:06:23;;;;;;;;;;;8.20;99.90;;;;;;5043475;28;19989;-72
2022/11/05 07:08:50;;;;;;;;;;;8.20;99.90;;;;;;5043746;28;19988;-71
2022/11/05 07:11:16;;;;;;;;;;;8.30;99.90;;;;;;5044063;28;20011;-71
2022/11/05 07:13:43;;;;;;;;;;;8.20;99.90;;;;;;5043815;28;19956;-71
2022/11/05 07:16:10;;;;;;;;;;;8.20;99.90;;;;;;5039852;28;20280;-71
2022/11/05 07:18:36;;;;;;;;;;;8.20;99.90;;;;;;5043747;28;19991;-71
2022/11/05 07:21:03;;;;;;;;;;;8.30;99.90;;;;;;5043855;28;20328;-71
2022/11/05 07:23:31;;;;;;;;;;;8.30;99.90;;;;;;5043908;28;19956;-71
2022/11/05 07:25:59;;;;;;;;;;;8.30;99.90;;;;;;5043616;28;19952;-71
2022/11/05 07:28:25;;;;;;;;;;;8.30;99.90;;;;;;5043752;28;19952;-71
2022/11/05 07:30:52;;;;;;;;;;;8.30;99.90;;;;;;5043689;28;19928;-71
2022/11/05 07:33:19;;;;;;;;;;;8.40;99.90;;;;;;5043709;28;20008;-70
2022/11/05 07:35:46;;;;;;;;;;;8.40;99.90;;;;;;5043063;28;19975;-70
2022/11/05 07:38:12;;;;;;;;;;;8.40;99.90;;;;;;5042782;28;19987;-70
2022/11/05 07:40:40;;;;;;;;;;;8.40;99.90;;;;;;5043545;28;19921;-72
2022/11/05 07:43:07;;;;;;;;;;;8.40;99.90;;;;;;5043323;28;19971;-70
2022/11/05 07:45:33;;;;;;;;;;;8.40;99.90;;;;;;5043538;28;19921;-73
2022/11/05 07:48:01;;;;;;;;;;;8.50;99.90;;;;;;5043240;28;20068;-73
2022/11/05 07:50:29;;;;;;;;;;;8.50;99.90;;;;;;5043639;28;20252;-79
2022/11/05 07:52:59;;;;;;;;;;;8.50;99.90;;;;;;5043395;28;19959;-73
2022/11/05 07:55:26;;;;;;;;;;;8.60;99.90;;;;;;5042860;28;19988;-73
2022/11/05 07:57:54;;;;;;;;;;;8.60;99.90;;;;;;5036799;28;19953;-73
2022/11/05 08:00:23;;;;;;;;;;;8.60;99.90;;;;;;5023091;28;19996;-73
2022/11/05 08:02:56;;;;;;;;;;;8.60;99.90;;;;;;5023688;28;19971;-74
2022/11/05 08:05:23;;;;;;;;;;;8.70;99.90;;;;;;5023530;28;20271;-73
2022/11/05 08:07:50;;;;;;;;;;;8.60;99.90;;;;;;5030595;28;19984;-74
2022/11/05 08:10:17;;;;;;;;;;;8.70;99.90;;;;;;5043899;28;19994;-74
2022/11/05 08:12:43;;;;;;;;;;;8.70;99.90;;;;;;5043250;28;20194;-73
2022/11/05 08:15:11;;;;;;;;;;;8.70;99.90;;;;;;5043120;28;19988;-74
2022/11/05 08:17:38;;;;;;;;;;;8.70;99.90;;;;;;5043494;28;19952;-71
2022/11/05 08:20:05;;;;;;;;;;;8.70;99.90;;;;;;5043337;28;19927;-73
2022/11/05 08:22:32;;;;;;;;;;;8.80;99.90;;;;;;5043522;28;19993;-73
2022/11/05 08:24:58;;;;;;;;;;;8.80;99.90;;;;;;5043474;28;20194;-73
2022/11/05 08:27:25;;;;;;;;;;;8.80;99.90;;;;;;5043697;28;19960;-73
2022/11/05 08:29:51;;;;;;;;;;;8.80;99.90;;;;;;5043283;28;19987;-73
2022/11/05 08:32:19;;;;;;;;;;;8.80;99.90;;;;;;5043538;28;19968;-74
2022/11/05 08:34:46;;;;;;;;;;;8.90;99.90;;;;;;5043244;28;19921;-73
2022/11/05 08:37:13;;;;;;;;;;;8.80;99.90;;;;;;5043415;28;20145;-73
2022/11/05 08:39:39;;;;;;;;;;;8.90;99.90;;;;;;5043405;28;19928;-73
2022/11/05 08:42:06;;;;;;;;;;;8.90;99.90;;;;;;5042856;28;20276;-73
2022/11/05 08:44:32;;;;;;;;;;;9.00;99.90;;;;;;5043055;28;19952;-73
2022/11/05 08:46:59;;;;;;;;;;;8.90;99.90;;;;;;5043128;28;19929;-73
2022/11/05 08:49:28;;;;;;;;;;;9.00;99.90;;;;;;5046315;28;19993;-73
2022/11/05 08:51:54;;;;;;;;;;;9.00;99.90;;;;;;5046553;28;19921;-74
2022/11/05 09:00:28;;;;;;;;;;;9.00;99.90;;;;;;5046496;28;20137;-69
2022/11/05 09:02:55;;;;;;;;;;;9.00;99.90;;;;;;5045812;28;19989;-69
2022/11/05 09:05:22;;;;;;;;;;;9.10;99.90;;;;;;5046062;28;19960;-69
2022/11/05 09:07:49;;;;;;;;;;;9.10;99.90;;;;;;5046288;28;19956;-69
2022/11/05 09:10:16;;;;;;;;;;;9.10;99.90;;;;;;5046195;28;19963;-70
2022/11/05 09:12:42;;;;;;;;;;;9.20;99.90;;;;;;5045986;28;19988;-70
2022/11/05 09:15:10;;;;;;;;;;;9.20;99.90;;;;;;5044970;28;20209;-72
2022/11/05 09:17:36;;;;;;;;;;;9.30;99.90;;;;;;5045980;28;19984;-70
2022/11/05 09:20:04;;;;;;;;;;;9.30;99.90;;;;;;5046022;28;19980;-70
2022/11/05 09:22:32;;;;;;;;;;;9.50;99.90;;;;;;5046034;28;19983;-72
2022/11/05 09:24:58;;;;;;;;;;;9.50;99.90;;;;;;5045407;28;20280;-69
2022/11/05 09:27:25;;;;;;;;;;;9.60;99.90;;;;;;5045836;28;19980;-73
2022/11/05 09:29:51;;;;;;;;;;;9.70;99.90;;;;;;5045978;28;19984;-73
2022/11/05 09:32:19;;;;;;;;;;;9.80;99.90;;;;;;5045509;28;19981;-73
2022/11/05 09:34:47;;;;;;;;;;;9.80;99.90;;;;;;5045667;28;20193;-73
2022/11/05 09:37:14;;;;;;;;;;;9.90;99.90;;;;;;5045536;28;19921;-73
2022/11/05 09:39:42;;;;;;;;;;;9.90;99.90;;;;;;5045344;28;20164;-73
2022/11/05 09:42:09;;;;;;;;;;;9.90;99.90;;;;;;5045760;28;19988;-73
2022/11/05 09:44:38;;;;;;;;;;;9.90;99.90;;;;;;5044733;28;19956;-72
2022/11/05 09:47:06;;;;;;;;;;;9.90;99.90;;;;;;5042558;28;19975;-71
2022/11/05 09:49:37;;;;;;;;;;;9.90;99.90;;;;;;5044637;28;20264;-70
2022/11/05 09:52:04;;;;;;;;;;;9.80;99.90;;;;;;5025335;28;19929;-73
2022/11/05 09:54:32;;;;;;;;;;;9.70;99.90;;;;;;5034954;28;19922;-71
2022/11/05 09:57:01;;;;;;;;;;;9.70;99.90;;;;;;5050224;28;19921;-71
2022/11/05 09:59:29;;;;;;;;;;;9.70;99.90;;;;;;5047629;28;19921;-71
2022/11/05 10:02:01;;;;;;;;;;;9.70;99.90;;;;;;5045019;28;19956;-72
2022/11/05 10:04:30;;;;;;;;;;;9.70;99.90;;;;;;5044559;28;20143;-72
2022/11/05 10:06:59;;;;;;;;;;;9.70;99.90;;;;;;5044986;28;19952;-71
2022/11/05 10:09:27;;;;;;;;;;;9.80;99.90;;;;;;5045328;28;19921;-73
2022/11/05 10:11:55;;;;;;;;;;;9.80;99.90;;;;;;5044913;28;20204;-73
2022/11/05 10:14:25;;;;;;;;;;;9.80;99.90;;;;;;5044971;28;19964;-74
2022/11/05 10:16:53;;;;;;;;;;;9.90;99.90;;;;;;5044699;28;19956;-73
2022/11/05 10:19:23;;;;;;;;;;;9.90;99.90;;;;;;5045192;28;19921;-73
2022/11/05 10:21:49;;;;;;;;;;;10.00;99.90;;;;;;5044903;28;19921;-73
2022/11/05 10:24:17;;;;;;;;;;;10.00;99.90;;;;;;5044981;28;19989;-72
2022/11/05 10:26:47;;;;;;;;;;;10.10;99.90;;;;;;5044709;28;19984;-73
2022/11/05 10:29:15;;;;;;;;;;;10.20;99.90;;;;;;5044439;28;20256;-72
2022/11/05 10:31:44;;;;;;;;;;;10.20;99.90;;;;;;5044824;28;20112;-73
2022/11/05 10:34:16;;;;;;;;;;;10.20;99.90;;;;;;5044552;28;19988;-73
2022/11/05 10:36:43;;;;;;;;;;;10.40;99.90;;;;;;5044502;28;19982;-74
2022/11/05 10:39:11;;;;;;;;;;;10.50;99.90;;;;;;5042421;28;19984;-72
2022/11/05 10:41:44;;;;;;;;;;;10.50;99.90;;;;;;5044517;28;19956;-72
2022/11/05 10:44:19;;;;;;;;;;;10.50;99.90;;;;;;5042302;28;19957;-73
2022/11/05 10:47:05;;;;;;;;;;;10.40;99.90;;;;;;5043936;28;19988;-72
2022/11/05 10:49:39;;;;;;;;;;;10.30;99.90;;;;;;5044587;28;20172;-73
2022/11/05 10:52:14;;;;;;;;;;;10.10;99.90;;;;;;5044186;28;19952;-72
2022/11/05 10:54:41;;;;;;;;;;;10.10;99.90;;;;;;5043750;28;20280;-71
2022/11/05 10:57:26;;;;;;;;;;;10.00;99.90;;;;;;5043994;28;19992;-72
2022/11/05 11:00:17;;;;;;;;;;;10.00;99.90;;;;;;5043663;28;20127;-71
2022/11/05 11:02:46;;;;;;;;;;;9.80;99.90;;;;;;5044057;28;19983;-72
2022/11/05 11:05:19;;;;;;;;;;;9.80;99.90;;;;;;5043586;28;19963;-70
2022/11/05 11:07:52;;;;;;;;;;;9.70;99.90;;;;;;5043418;28;19985;-70
2022/11/05 11:10:19;;;;;;;;;;;9.60;99.90;;;;;;5043120;28;19975;-70
2022/11/05 11:12:48;;;;;;;;;;;9.60;99.90;;;;;;5043602;28;19952;-70
2022/11/05 11:15:16;;;;;;;;;;;9.50;99.90;;;;;;5042449;28;19952;-70
2022/11/05 11:17:42;;;;;;;;;;;9.50;99.90;;;;;;5042629;28;19961;-69
2022/11/05 11:20:22;;;;;;;;;;;9.40;99.90;;;;;;5042845;28;19995;-70
2022/11/05 11:23:02;;;;;;;;;;;9.30;99.90;;;;;;5041816;28;19929;-70
2022/11/05 11:25:31;;;;;;;;;;;9.30;99.90;;;;;;5042226;28;19952;-71
2022/11/05 11:28:02;;;;;;;;;;;9.40;99.90;;;;;;5042109;28;19921;-71
2022/11/05 11:30:28;;;;;;;;;;;9.30;99.90;;;;;;5043404;28;19921;-71
2022/11/05 11:32:59;;;;;;;;;;;9.30;99.90;;;;;;5042611;28;20278;-70
2022/11/05 11:35:28;;;;;;;;;;;9.30;99.90;;;;;;5042784;28;20184;-70
2022/11/05 11:37:56;;;;;;;;;;;9.30;99.90;;;;;;5043298;28;19936;-71
2022/11/05 11:40:28;;;;;;;;;;;9.30;99.90;;;;;;5041870;28;19956;-71
2022/11/05 11:42:57;;;;;;;;;;;9.30;99.90;;;;;;5043619;28;20084;-71
2022/11/05 11:45:25;;;;;;;;;;;9.30;99.90;;;;;;5043305;28;19953;-71
2022/11/05 11:47:55;;;;;;;;;;;9.30;99.90;;;;;;5043334;28;19921;-71
2022/11/05 11:50:36;;;;;;;;;;;9.30;99.90;;;;;;5042242;28;19968;-70
2022/11/05 11:53:24;;;;;;;;;;;9.40;99.90;;;;;;5040287;28;19928;-71
2022/11/05 11:55:59;;;;;;;;;;;9.40;99.90;;;;;;5039381;28;19956;-71
2022/11/05 11:58:35;;;;;;;;;;;9.40;99.90;;;;;;5043277;28;19984;-70
2022/11/05 12:01:04;;;;;;;;;;;9.40;99.90;;;;;;5042982;28;19964;-71
2022/11/05 12:03:35;;;;;;;;;;;9.40;99.90;;;;;;5042343;28;19921;-71
2022/11/05 12:06:04;;;;;;;;;;;9.30;99.90;;;;;;5043179;28;19984;-71
2022/11/05 12:08:40;;;;;;;;;;;9.30;99.90;;;;;;5043646;28;19964;-71
2022/11/05 12:11:11;;;;;;;;;;;9.40;99.90;;;;;;5041461;28;19980;-72
2022/11/05 12:13:56;;;;;;;;;;;9.40;99.90;;;;;;5042155;28;19992;-71
2022/11/05 12:16:34;;;;;;;;;;;9.40;99.90;;;;;;5039291;28;19920;-72
2022/11/05 12:19:05;;;;;;;;;;;9.50;99.90;;;;;;5044091;28;20184;-69
2022/11/05 12:21:38;;;;;;;;;;;9.50;99.90;;;;;;5043367;28;19921;-69
2022/11/05 12:24:15;;;;;;;;;;;9.60;99.90;;;;;;5047206;28;19980;-70
2022/11/05 12:26:48;;;;;;;;;;;9.60;99.90;;;;;;5046412;28;19921;-71
2022/11/05 12:29:25;;;;;;;;;;;9.70;99.90;;;;;;5045734;28;20120;-69
2022/11/05 12:31:59;;;;;;;;;;;9.70;99.90;;;;;;5045734;28;19984;-70
2022/11/05 12:34:33;;;;;;;;;;;9.70;99.90;;;;;;5045841;28;19921;-71
2022/11/05 12:37:07;;;;;;;;;;;9.70;99.90;;;;;;5045537;28;19980;-71
2022/11/05 12:39:40;;;;;;;;;;;9.70;99.90;;;;;;5045537;28;19984;-70
2022/11/05 12:42:10;;;;;;;;;;;9.70;99.90;;;;;;5046657;28;19966;-69
2022/11/05 12:44:43;;;;;;;;;;;9.70;99.90;;;;;;5046065;28;19960;-70
2022/11/05 12:47:15;;;;;;;;;;;9.80;99.90;;;;;;5046329;28;20288;-69
2022/11/05 12:49:47;;;;;;;;;;;9.80;99.90;;;;;;5043765;28;19996;-70
2022/11/05 12:52:20;;;;;;;;;;;9.80;99.90;;;;;;5046531;28;19988;-70
2022/11/05 12:54:57;;;;;;;;;;;9.80;99.90;;;;;;5045942;28;19979;-68
2022/11/05 12:57:26;;;;;;;;;;;9.90;99.90;;;;;;5046446;28;19921;-70
2022/11/05 12:59:54;;;;;;;;;;;9.80;99.90;;;;;;5046674;28;19987;-69
2022/11/05 13:02:23;;;;;;;;;;;9.90;99.90;;;;;;5044750;28;19988;-70
2022/11/05 13:04:52;;;;;;;;;;;9.90;99.90;;;;;;5045107;28;20271;-70
2022/11/05 13:07:22;;;;;;;;;;;9.90;99.90;;;;;;5024994;28;19988;-71
2022/11/05 13:09:54;;;;;;;;;;;9.90;99.90;;;;;;5029089;28;19984;-70
2022/11/05 13:12:22;;;;;;;;;;;9.90;99.90;;;;;;5045761;28;19985;-71
2022/11/05 13:14:53;;;;;;;;;;;9.90;99.90;;;;;;5044701;28;19984;-70
2022/11/05 13:17:22;;;;;;;;;;;9.90;99.90;;;;;;5044827;28;20256;-71
2022/11/05 13:19:51;;;;;;;;;;;9.90;99.90;;;;;;5046172;28;20290;-71
2022/11/05 13:22:23;;;;;;;;;;;9.90;99.90;;;;;;5042566;28;19992;-69
2022/11/05 13:24:51;;;;;;;;;;;9.90;99.90;;;;;;5045248;28;19995;-70
2022/11/05 13:27:36;;;;;;;;;;;9.90;99.90;;;;;;5046030;28;19967;-72
2022/11/05 13:30:06;;;;;;;;;;;9.90;99.90;;;;;;5032825;28;19956;-70
2022/11/05 13:32:35;;;;;;;;;;;9.90;99.90;;;;;;5041785;28;19957;-70
2022/11/05 13:35:04;;;;;;;;;;;9.90;99.90;;;;;;5043070;28;19975;-71
2022/11/05 13:40:18;;;;;;;;;;;9.90;99.90;;;;;;5045427;28;19967;-70
2022/11/05 13:42:56;;;;;;;;;;;9.90;99.90;;;;;;5045603;28;19992;-70
2022/11/05 13:45:32;;;;;;;;;;;9.90;99.90;;;;;;5039160;28;20195;-69
2022/11/05 13:48:15;;;;;;;;;;;9.90;99.90;;;;;;5020241;28;19992;-70
2022/11/05 13:50:51;;;;;;;;;;;9.90;99.90;;;;;;5012971;28;19988;-71
2022/11/05 13:53:39;;;;;;;;;;;9.90;99.90;;;;;;5025895;28;20001;-71
2022/11/05 13:56:12;;;;;;;;;;;9.90;99.90;;;;;;5000483;28;19944;-71
2022/11/05 13:58:50;;;;;;;;;;;9.90;99.90;;;;;;5025185;28;19956;-69
2022/11/05 14:01:27;;;;;;;;;;;9.90;99.90;;;;;;5025344;28;20209;-72
2022/11/05 14:03:55;;;;;;;;;;;9.90;99.90;;;;;;5025592;28;19989;-71
2022/11/05 14:06:26;;;;;;;;;;;9.80;99.90;;;;;;5024123;28;19921;-70
2022/11/05 14:08:56;;;;;;;;;;;9.90;99.90;;;;;;5021692;28;20160;-70
2022/11/05 14:11:26;;;;;;;;;;;9.90;99.90;;;;;;5023721;28;19956;-71
2022/11/05 14:13:55;;;;;;;;;;;9.80;99.90;;;;;;5024657;28;19928;-70
2022/11/05 14:16:23;;;;;;;;;;;9.80;99.90;;;;;;5024793;28;20173;-71
2022/11/05 14:18:53;;;;;;;;;;;9.70;99.90;;;;;;5025880;28;19952;-71
2022/11/05 14:21:31;;;;;;;;;;;9.80;99.90;;;;;;5044872;28;19971;-71
2022/11/05 14:23:58;;;;;;;;;;;9.80;99.90;;;;;;5044744;28;20205;-72
2022/11/05 14:26:25;;;;;;;;;;;9.80;99.90;;;;;;5044123;28;19921;-71
2022/11/05 14:29:06;;;;;;;;;;;9.80;99.90;;;;;;5044994;28;19960;-71
2022/11/05 14:31:41;;;;;;;;;;;9.80;99.90;;;;;;5043768;28;19956;-71
2022/11/05 14:34:18;;;;;;;;;;;9.80;99.90;;;;;;5044558;28;19921;-69
2022/11/05 14:36:45;;;;;;;;;;;9.80;99.90;;;;;;5044200;28;19949;-71
2022/11/05 14:39:17;;;;;;;;;;;9.80;99.90;;;;;;5044295;28;19921;-71
2022/11/05 14:41:57;;;;;;;;;;;9.90;99.90;;;;;;5044040;28;19988;-70
2022/11/05 14:44:25;;;;;;;;;;;9.90;99.90;;;;;;5041627;28;19989;-70
2022/11/05 14:46:54;;;;;;;;;;;9.90;99.90;;;;;;5037909;28;19921;-71
2022/11/05 14:49:22;;;;;;;;;;;10.00;99.90;;;;;;5043927;28;19984;-70
2022/11/05 14:51:51;;;;;;;;;;;9.90;99.90;;;;;;5044377;28;19988;-72
2022/11/05 14:54:20;;;;;;;;;;;9.90;99.90;;;;;;5044179;28;19948;-71
2022/11/05 14:56:47;;;;;;;;;;;9.80;99.90;;;;;;5026023;28;19948;-70
2022/11/05 14:59:34;;;;;;;;;;;9.80;99.90;;;;;;5024215;28;20349;-72
2022/11/05 15:02:03;;;;;;;;;;;9.80;99.90;;;;;;5023887;28;19992;-70
2022/11/05 15:04:30;;;;;;;;;;;9.70;99.90;;;;;;5029149;28;19984;-69
2022/11/05 15:07:18;;;;;;;;;;;9.60;99.90;;;;;;5042762;28;20007;-70
2022/11/05 15:09:47;;;;;;;;;;;9.60;99.90;;;;;;5001255;28;20021;-72
2022/11/05 15:12:17;;;;;;;;;;;9.50;99.90;;;;;;5031766;28;19980;-72
2022/11/05 15:14:50;;;;;;;;;;;9.40;99.90;;;;;;5042475;28;20300;-70
2022/11/05 15:17:22;;;;;;;;;;;9.30;99.90;;;;;;5024984;28;19988;-69
2022/11/05 15:19:49;;;;;;;;;;;9.30;99.90;;;;;;5039090;28;19921;-70
2022/11/05 15:22:22;;;;;;;;;;;9.20;99.90;;;;;;5043807;28;20000;-70
2022/11/05 15:24:49;;;;;;;;;;;9.00;99.90;;;;;;5042029;28;20001;-69
2022/11/05 15:27:18;;;;;;;;;;;8.90;99.90;;;;;;5042283;28;20271;-69
2022/11/05 15:29:45;;;;;;;;;;;8.80;99.90;;;;;;5042736;28;19988;-68